sensor_id;sensor_type;location;lat;lon;timestamp;temperature;humidity
33841;DHT22;20142;28.494;-16.312;2023-03-11T00:01:53;17.70;61.40
33841;DHT22;20142;28.494;-16.312;2023-03-11T00:06:54;17.70;61.30
33841;DHT22;20142;28.494;-16.312;2023-03-11T00:11:56;17.70;61.40
33841;DHT22;20142;28.494;-16.312;2023-03-11T00:16:58;17.50;61.80
33841;DHT22;20142;28.494;-16.312;2023-03-11T00:22:01;17.50;61.70
33841;DHT22;20142;28.494;-16.312;2023-03-11T00:27:03;17.40;61.60
33841;DHT22;20142;28.494;-16.312;2023-03-11T00:32:05;17.30;61.30
33841;DHT22;20142;28.494;-16.312;2023-03-11T00:37:07;16.90;62.20
33841;DHT22;20142;28.494;-16.312;2023-03-11T00:42:09;17.20;62.10
33841;DHT22;20142;28.494;-16.312;2023-03-11T00:47:11;17.40;61.80
33841;DHT22;20142;28.494;-16.312;2023-03-11T00:52:12;17.30;61.80
33841;DHT22;20142;28.494;-16.312;2023-03-11T00:57:14;17.30;62.10
33841;DHT22;20142;28.494;-16.312;2023-03-11T01:02:15;17.20;62.30
33841;DHT22;20142;28.494;-16.312;2023-03-11T01:07:17;17.10;62.30
33841;DHT22;20142;28.494;-16.312;2023-03-11T01:12:19;16.90;62.60
33841;DHT22;20142;28.494;-16.312;2023-03-11T01:17:20;16.80;62.80
33841;DHT22;20142;28.494;-16.312;2023-03-11T01:22:22;16.70;62.90
33841;DHT22;20142;28.494;-16.312;2023-03-11T01:27:24;16.60;62.90
33841;DHT22;20142;28.494;-16.312;2023-03-11T01:32:26;16.70;62.90
33841;DHT22;20142;28.494;-16.312;2023-03-11T01:37:28;16.60;63.10
33841;DHT22;20142;28.494;-16.312;2023-03-11T01:42:30;16.70;63.00
33841;DHT22;20142;28.494;-16.312;2023-03-11T01:47:38;16.50;63.00
33841;DHT22;20142;28.494;-16.312;2023-03-11T01:52:41;16.40;63.50
33841;DHT22;20142;28.494;-16.312;2023-03-11T01:57:44;16.40;63.70
33841;DHT22;20142;28.494;-16.312;2023-03-11T02:02:51;16.60;63.50
33841;DHT22;20142;28.494;-16.312;2023-03-11T02:07:54;16.50;63.50
33841;DHT22;20142;28.494;-16.312;2023-03-11T02:12:56;16.30;63.70
33841;DHT22;20142;28.494;-16.312;2023-03-11T02:18:02;16.20;63.70
33841;DHT22;20142;28.494;-16.312;2023-03-11T02:23:05;16.00;63.80
33841;DHT22;20142;28.494;-16.312;2023-03-11T02:28:10;15.80;63.70
33841;DHT22;20142;28.494;-16.312;2023-03-11T02:33:14;15.70;64.50
33841;DHT22;20142;28.494;-16.312;2023-03-11T02:38:16;15.70;64.60
33841;DHT22;20142;28.494;-16.312;2023-03-11T02:43:39;15.60;64.40
33841;DHT22;20142;28.494;-16.312;2023-03-11T02:48:42;15.20;65.20
33841;DHT22;20142;28.494;-16.312;2023-03-11T02:53:48;15.20;65.70
33841;DHT22;20142;28.494;-16.312;2023-03-11T02:58:52;15.50;65.30
33841;DHT22;20142;28.494;-16.312;2023-03-11T03:03:53;15.50;64.60
33841;DHT22;20142;28.494;-16.312;2023-03-11T03:08:55;15.50;64.80
33841;DHT22;20142;28.494;-16.312;2023-03-11T03:13:57;15.60;65.40
33841;DHT22;20142;28.494;-16.312;2023-03-11T03:18:59;15.80;65.10
33841;DHT22;20142;28.494;-16.312;2023-03-11T03:24:00;15.80;64.60
33841;DHT22;20142;28.494;-16.312;2023-03-11T03:29:04;15.80;64.90
33841;DHT22;20142;28.494;-16.312;2023-03-11T03:34:06;15.90;64.80
33841;DHT22;20142;28.494;-16.312;2023-03-11T03:39:07;15.80;65.80
33841;DHT22;20142;28.494;-16.312;2023-03-11T03:44:09;15.80;65.40
33841;DHT22;20142;28.494;-16.312;2023-03-11T03:49:10;15.90;64.80
33841;DHT22;20142;28.494;-16.312;2023-03-11T03:54:12;15.70;65.30
33841;DHT22;20142;28.494;-16.312;2023-03-11T03:59:15;15.60;65.40
33841;DHT22;20142;28.494;-16.312;2023-03-11T04:04:17;15.40;66.40
33841;DHT22;20142;28.494;-16.312;2023-03-11T04:09:19;15.50;66.00
33841;DHT22;20142;28.494;-16.312;2023-03-11T04:14:21;15.40;66.50
33841;DHT22;20142;28.494;-16.312;2023-03-11T04:19:23;15.20;67.00
33841;DHT22;20142;28.494;-16.312;2023-03-11T04:24:25;15.30;67.10
33841;DHT22;20142;28.494;-16.312;2023-03-11T04:29:27;15.30;66.70
33841;DHT22;20142;28.494;-16.312;2023-03-11T04:34:28;15.40;66.70
33841;DHT22;20142;28.494;-16.312;2023-03-11T04:39:30;15.50;66.80
33841;DHT22;20142;28.494;-16.312;2023-03-11T04:44:34;15.40;66.80
33841;DHT22;20142;28.494;-16.312;2023-03-11T04:49:36;15.20;67.30
33841;DHT22;20142;28.494;-16.312;2023-03-11T04:54:38;15.10;67.50
33841;DHT22;20142;28.494;-16.312;2023-03-11T04:59:40;15.10;67.50
33841;DHT22;20142;28.494;-16.312;2023-03-11T05:04:42;15.00;67.60
33841;DHT22;20142;28.494;-16.312;2023-03-11T05:09:45;15.10;67.50
33841;DHT22;20142;28.494;-16.312;2023-03-11T05:14:47;14.80;67.80
33841;DHT22;20142;28.494;-16.312;2023-03-11T05:19:48;14.90;68.00
33841;DHT22;20142;28.494;-16.312;2023-03-11T05:24:51;14.80;68.40
33841;DHT22;20142;28.494;-16.312;2023-03-11T05:29:52;14.90;68.20
33841;DHT22;20142;28.494;-16.312;2023-03-11T05:34:54;15.00;68.10
33841;DHT22;20142;28.494;-16.312;2023-03-11T05:39:56;14.90;68.50
33841;DHT22;20142;28.494;-16.312;2023-03-11T05:44:57;15.10;68.30
33841;DHT22;20142;28.494;-16.312;2023-03-11T05:49:59;15.00;68.40
33841;DHT22;20142;28.494;-16.312;2023-03-11T05:55:00;14.70;68.70
33841;DHT22;20142;28.494;-16.312;2023-03-11T06:00:04;14.70;68.70
33841;DHT22;20142;28.494;-16.312;2023-03-11T06:05:11;14.80;69.00
33841;DHT22;20142;28.494;-16.312;2023-03-11T06:10:13;14.60;68.90
33841;DHT22;20142;28.494;-16.312;2023-03-11T06:15:15;14.50;69.30
33841;DHT22;20142;28.494;-16.312;2023-03-11T06:20:17;14.70;69.40
33841;DHT22;20142;28.494;-16.312;2023-03-11T06:25:19;14.60;69.40
33841;DHT22;20142;28.494;-16.312;2023-03-11T06:30:20;14.70;69.70
33841;DHT22;20142;28.494;-16.312;2023-03-11T06:35:24;14.60;69.70
33841;DHT22;20142;28.494;-16.312;2023-03-11T06:40:25;14.50;70.00
33841;DHT22;20142;28.494;-16.312;2023-03-11T06:45:27;14.50;70.40
33841;DHT22;20142;28.494;-16.312;2023-03-11T06:50:29;14.60;70.00
33841;DHT22;20142;28.494;-16.312;2023-03-11T06:55:31;14.60;70.10
33841;DHT22;20142;28.494;-16.312;2023-03-11T07:00:32;14.40;70.30
33841;DHT22;20142;28.494;-16.312;2023-03-11T07:05:34;14.40;70.80
33841;DHT22;20142;28.494;-16.312;2023-03-11T07:10:36;14.50;70.80
33841;DHT22;20142;28.494;-16.312;2023-03-11T07:15:37;14.30;70.70
33841;DHT22;20142;28.494;-16.312;2023-03-11T07:20:39;14.50;71.30
33841;DHT22;20142;28.494;-16.312;2023-03-11T07:25:45;14.50;70.90
33841;DHT22;20142;28.494;-16.312;2023-03-11T07:30:47;14.20;71.30
33841;DHT22;20142;28.494;-16.312;2023-03-11T07:35:50;14.40;71.60
33841;DHT22;20142;28.494;-16.312;2023-03-11T07:40:58;14.40;72.00
33841;DHT22;20142;28.494;-16.312;2023-03-11T07:46:10;14.40;72.20
33841;DHT22;20142;28.494;-16.312;2023-03-11T07:51:16;14.40;71.50
33841;DHT22;20142;28.494;-16.312;2023-03-11T07:56:21;14.30;72.50
33841;DHT22;20142;28.494;-16.312;2023-03-11T08:01:26;14.40;72.60
33841;DHT22;20142;28.494;-16.312;2023-03-11T08:06:36;14.40;72.20
33841;DHT22;20142;28.494;-16.312;2023-03-11T08:11:39;14.50;72.60
33841;DHT22;20142;28.494;-16.312;2023-03-11T08:16:40;14.60;73.00
33841;DHT22;20142;28.494;-16.312;2023-03-11T08:21:42;14.70;72.80
33841;DHT22;20142;28.494;-16.312;2023-03-11T08:26:44;14.90;73.00
33841;DHT22;20142;28.494;-16.312;2023-03-11T08:31:45;15.20;72.90
33841;DHT22;20142;28.494;-16.312;2023-03-11T08:36:47;15.50;72.30
33841;DHT22;20142;28.494;-16.312;2023-03-11T08:41:49;15.80;72.50
33841;DHT22;20142;28.494;-16.312;2023-03-11T08:46:50;16.10;72.70
33841;DHT22;20142;28.494;-16.312;2023-03-11T08:51:52;16.50;72.80
33841;DHT22;20142;28.494;-16.312;2023-03-11T08:56:54;17.10;73.20
33841;DHT22;20142;28.494;-16.312;2023-03-11T09:01:55;17.50;73.50
33841;DHT22;20142;28.494;-16.312;2023-03-11T09:06:57;18.00;73.50
33841;DHT22;20142;28.494;-16.312;2023-03-11T09:11:59;18.30;73.30
33841;DHT22;20142;28.494;-16.312;2023-03-11T09:17:00;18.60;73.40
33841;DHT22;20142;28.494;-16.312;2023-03-11T09:22:03;19.00;73.40
33841;DHT22;20142;28.494;-16.312;2023-03-11T09:27:05;19.30;73.50
33841;DHT22;20142;28.494;-16.312;2023-03-11T09:32:07;19.50;73.50
33841;DHT22;20142;28.494;-16.312;2023-03-11T09:37:13;19.80;73.50
33841;DHT22;20142;28.494;-16.312;2023-03-11T09:42:40;20.10;73.40
33841;DHT22;20142;28.494;-16.312;2023-03-11T09:47:58;20.30;73.50
33841;DHT22;20142;28.494;-16.312;2023-03-11T09:58:40;20.70;73.00
33841;DHT22;20142;28.494;-16.312;2023-03-11T10:03:44;20.80;73.10
33841;DHT22;20142;28.494;-16.312;2023-03-11T10:09:26;20.90;72.60
33841;DHT22;20142;28.494;-16.312;2023-03-11T10:25:48;21.40;72.10
33841;DHT22;20142;28.494;-16.312;2023-03-11T10:31:20;21.50;72.00
33841;DHT22;20142;28.494;-16.312;2023-03-11T10:36:33;21.70;72.10
33841;DHT22;20142;28.494;-16.312;2023-03-11T10:41:49;21.70;71.90
33841;DHT22;20142;28.494;-16.312;2023-03-11T10:46:54;21.90;72.20
33841;DHT22;20142;28.494;-16.312;2023-03-11T10:51:57;22.20;72.00
33841;DHT22;20142;28.494;-16.312;2023-03-11T10:57:04;22.20;71.70
33841;DHT22;20142;28.494;-16.312;2023-03-11T11:02:30;22.30;71.90
33841;DHT22;20142;28.494;-16.312;2023-03-11T11:07:37;22.50;71.90
33841;DHT22;20142;28.494;-16.312;2023-03-11T11:12:57;22.70;71.90
33841;DHT22;20142;28.494;-16.312;2023-03-11T11:18:04;22.80;71.90
33841;DHT22;20142;28.494;-16.312;2023-03-11T11:23:24;22.90;71.50
33841;DHT22;20142;28.494;-16.312;2023-03-11T11:39:56;23.00;70.70
33841;DHT22;20142;28.494;-16.312;2023-03-11T11:45:19;23.10;70.90
33841;DHT22;20142;28.494;-16.312;2023-03-11T11:50:43;23.30;70.70
33841;DHT22;20142;28.494;-16.312;2023-03-11T11:55:50;23.30;70.20
33841;DHT22;20142;28.494;-16.312;2023-03-11T12:01:09;23.40;70.30
33841;DHT22;20142;28.494;-16.312;2023-03-11T12:06:26;23.30;69.80
33841;DHT22;20142;28.494;-16.312;2023-03-11T12:11:43;23.30;70.20
33841;DHT22;20142;28.494;-16.312;2023-03-11T12:16:58;23.40;69.90
33841;DHT22;20142;28.494;-16.312;2023-03-11T12:27:31;23.40;69.10
33841;DHT22;20142;28.494;-16.312;2023-03-11T12:32:38;23.40;69.60
33841;DHT22;20142;28.494;-16.312;2023-03-11T12:37:42;23.50;69.10
33841;DHT22;20142;28.494;-16.312;2023-03-11T12:42:43;23.50;68.90
33841;DHT22;20142;28.494;-16.312;2023-03-11T12:53:47;23.60;68.50
33841;DHT22;20142;28.494;-16.312;2023-03-11T13:09:44;23.50;68.40
33841;DHT22;20142;28.494;-16.312;2023-03-11T13:14:46;23.40;68.50
33841;DHT22;20142;28.494;-16.312;2023-03-11T13:19:53;23.30;68.80
33841;DHT22;20142;28.494;-16.312;2023-03-11T13:24:56;23.20;69.20
33841;DHT22;20142;28.494;-16.312;2023-03-11T13:30:32;23.20;69.90
33841;DHT22;20142;28.494;-16.312;2023-03-11T13:41:21;23.30;69.90
33841;DHT22;20142;28.494;-16.312;2023-03-11T13:46:38;23.30;70.70
33841;DHT22;20142;28.494;-16.312;2023-03-11T13:51:43;23.30;71.10
33841;DHT22;20142;28.494;-16.312;2023-03-11T13:56:51;23.20;71.20
33841;DHT22;20142;28.494;-16.312;2023-03-11T14:01:59;23.20;71.70
33841;DHT22;20142;28.494;-16.312;2023-03-11T14:12:30;23.30;72.20
33841;DHT22;20142;28.494;-16.312;2023-03-11T14:17:32;23.40;72.30
33841;DHT22;20142;28.494;-16.312;2023-03-11T14:22:34;23.40;72.10
33841;DHT22;20142;28.494;-16.312;2023-03-11T14:27:38;23.60;72.50
33841;DHT22;20142;28.494;-16.312;2023-03-11T14:33:24;23.70;71.30
33841;DHT22;20142;28.494;-16.312;2023-03-11T14:38:29;23.90;71.30
33841;DHT22;20142;28.494;-16.312;2023-03-11T14:43:34;24.10;71.50
33841;DHT22;20142;28.494;-16.312;2023-03-11T14:48:39;24.70;72.30
33841;DHT22;20142;28.494;-16.312;2023-03-11T14:54:15;27.70;71.30
33841;DHT22;20142;28.494;-16.312;2023-03-11T14:59:22;34.70;58.80
33841;DHT22;20142;28.494;-16.312;2023-03-11T15:04:35;39.90;51.60
33841;DHT22;20142;28.494;-16.312;2023-03-11T15:09:39;43.20;48.00
33841;DHT22;20142;28.494;-16.312;2023-03-11T15:14:49;45.00;44.50
33841;DHT22;20142;28.494;-16.312;2023-03-11T15:19:51;46.40;43.40
33841;DHT22;20142;28.494;-16.312;2023-03-11T15:24:56;47.40;41.30
33841;DHT22;20142;28.494;-16.312;2023-03-11T15:30:02;48.40;39.70
33841;DHT22;20142;28.494;-16.312;2023-03-11T15:35:21;49.00;38.30
33841;DHT22;20142;28.494;-16.312;2023-03-11T15:40:27;50.00;36.40
33841;DHT22;20142;28.494;-16.312;2023-03-11T15:45:30;49.10;35.50
33841;DHT22;20142;28.494;-16.312;2023-03-11T15:50:31;49.30;34.50
33841;DHT22;20142;28.494;-16.312;2023-03-11T15:55:33;48.90;34.30
33841;DHT22;20142;28.494;-16.312;2023-03-11T16:00:36;49.10;32.80
33841;DHT22;20142;28.494;-16.312;2023-03-11T16:05:38;49.40;32.50
33841;DHT22;20142;28.494;-16.312;2023-03-11T16:10:40;50.00;32.10
33841;DHT22;20142;28.494;-16.312;2023-03-11T16:15:43;50.90;31.50
33841;DHT22;20142;28.494;-16.312;2023-03-11T16:20:49;49.70;31.10
33841;DHT22;20142;28.494;-16.312;2023-03-11T16:25:56;49.90;30.50
33841;DHT22;20142;28.494;-16.312;2023-03-11T16:30:59;49.70;30.20
33841;DHT22;20142;28.494;-16.312;2023-03-11T16:36:01;49.50;29.50
33841;DHT22;20142;28.494;-16.312;2023-03-11T16:41:04;50.30;30.20
33841;DHT22;20142;28.494;-16.312;2023-03-11T16:46:06;51.90;28.90
33841;DHT22;20142;28.494;-16.312;2023-03-11T16:51:08;51.10;29.00
33841;DHT22;20142;28.494;-16.312;2023-03-11T16:56:09;50.60;29.50
33841;DHT22;20142;28.494;-16.312;2023-03-11T17:01:11;50.60;28.70
33841;DHT22;20142;28.494;-16.312;2023-03-11T17:06:13;50.00;28.70
33841;DHT22;20142;28.494;-16.312;2023-03-11T17:11:17;49.70;28.80
33841;DHT22;20142;28.494;-16.312;2023-03-11T17:16:21;49.40;29.10
33841;DHT22;20142;28.494;-16.312;2023-03-11T17:21:23;49.90;28.70
33841;DHT22;20142;28.494;-16.312;2023-03-11T17:26:25;49.80;28.70
33841;DHT22;20142;28.494;-16.312;2023-03-11T17:31:30;49.90;28.20
33841;DHT22;20142;28.494;-16.312;2023-03-11T17:36:32;49.00;28.70
33841;DHT22;20142;28.494;-16.312;2023-03-11T17:41:34;48.00;29.10
33841;DHT22;20142;28.494;-16.312;2023-03-11T17:46:35;45.40;29.60
33841;DHT22;20142;28.494;-16.312;2023-03-11T17:51:39;43.50;30.90
33841;DHT22;20142;28.494;-16.312;2023-03-11T17:56:40;43.10;31.60
33841;DHT22;20142;28.494;-16.312;2023-03-11T18:01:42;41.40;32.50
33841;DHT22;20142;28.494;-16.312;2023-03-11T18:06:44;40.50;33.80
33841;DHT22;20142;28.494;-16.312;2023-03-11T18:11:45;39.80;34.60
33841;DHT22;20142;28.494;-16.312;2023-03-11T18:16:47;39.30;35.50
33841;DHT22;20142;28.494;-16.312;2023-03-11T18:21:49;38.40;36.10
33841;DHT22;20142;28.494;-16.312;2023-03-11T18:26:50;37.40;36.80
33841;DHT22;20142;28.494;-16.312;2023-03-11T18:31:52;34.60;38.00
33841;DHT22;20142;28.494;-16.312;2023-03-11T18:36:54;31.60;40.80
33841;DHT22;20142;28.494;-16.312;2023-03-11T18:41:55;29.50;43.70
33841;DHT22;20142;28.494;-16.312;2023-03-11T18:46:57;28.50;45.70
33841;DHT22;20142;28.494;-16.312;2023-03-11T18:51:59;27.60;47.00
33841;DHT22;20142;28.494;-16.312;2023-03-11T18:57:00;27.00;48.20
33841;DHT22;20142;28.494;-16.312;2023-03-11T19:02:02;26.50;49.20
33841;DHT22;20142;28.494;-16.312;2023-03-11T19:07:04;25.70;51.30
33841;DHT22;20142;28.494;-16.312;2023-03-11T19:12:05;25.20;52.80
33841;DHT22;20142;28.494;-16.312;2023-03-11T19:17:07;24.90;53.50
33841;DHT22;20142;28.494;-16.312;2023-03-11T19:22:09;24.80;54.10
33841;DHT22;20142;28.494;-16.312;2023-03-11T19:27:11;24.50;55.00
33841;DHT22;20142;28.494;-16.312;2023-03-11T19:32:12;24.50;55.80
33841;DHT22;20142;28.494;-16.312;2023-03-11T19:37:14;24.50;56.00
33841;DHT22;20142;28.494;-16.312;2023-03-11T19:42:17;24.50;56.50
33841;DHT22;20142;28.494;-16.312;2023-03-11T19:47:19;24.20;56.70
33841;DHT22;20142;28.494;-16.312;2023-03-11T19:52:20;23.90;56.50
33841;DHT22;20142;28.494;-16.312;2023-03-11T19:57:23;23.70;56.40
33841;DHT22;20142;28.494;-16.312;2023-03-11T20:02:25;23.40;57.60
33841;DHT22;20142;28.494;-16.312;2023-03-11T20:07:26;23.20;57.50
33841;DHT22;20142;28.494;-16.312;2023-03-11T20:12:28;23.10;57.10
33841;DHT22;20142;28.494;-16.312;2023-03-11T20:17:30;22.80;56.40
33841;DHT22;20142;28.494;-16.312;2023-03-11T20:22:31;22.70;55.90
33841;DHT22;20142;28.494;-16.312;2023-03-11T20:27:33;22.70;55.50
33841;DHT22;20142;28.494;-16.312;2023-03-11T20:32:35;22.70;54.50
33841;DHT22;20142;28.494;-16.312;2023-03-11T20:37:36;22.60;53.80
33841;DHT22;20142;28.494;-16.312;2023-03-11T20:42:39;22.40;52.90
33841;DHT22;20142;28.494;-16.312;2023-03-11T20:47:43;22.40;52.60
33841;DHT22;20142;28.494;-16.312;2023-03-11T20:52:45;22.30;52.20
33841;DHT22;20142;28.494;-16.312;2023-03-11T20:57:46;21.90;52.10
33841;DHT22;20142;28.494;-16.312;2023-03-11T21:02:48;21.90;52.40
33841;DHT22;20142;28.494;-16.312;2023-03-11T21:07:50;21.70;51.60
33841;DHT22;20142;28.494;-16.312;2023-03-11T21:12:52;21.70;52.50
33841;DHT22;20142;28.494;-16.312;2023-03-11T21:17:53;21.60;51.40
33841;DHT22;20142;28.494;-16.312;2023-03-11T21:22:55;21.40;51.90
33841;DHT22;20142;28.494;-16.312;2023-03-11T21:27:57;21.30;51.50
33841;DHT22;20142;28.494;-16.312;2023-03-11T21:32:58;21.00;52.10
33841;DHT22;20142;28.494;-16.312;2023-03-11T21:38:00;20.90;52.90
33841;DHT22;20142;28.494;-16.312;2023-03-11T21:43:01;20.80;52.80
33841;DHT22;20142;28.494;-16.312;2023-03-11T21:48:03;20.90;53.10
33841;DHT22;20142;28.494;-16.312;2023-03-11T21:53:07;20.70;53.20
33841;DHT22;20142;28.494;-16.312;2023-03-11T21:58:09;20.70;53.20
33841;DHT22;20142;28.494;-16.312;2023-03-11T22:03:10;20.60;52.60
33841;DHT22;20142;28.494;-16.312;2023-03-11T22:08:13;20.30;51.90
33841;DHT22;20142;28.494;-16.312;2023-03-11T22:13:14;20.30;52.70
33841;DHT22;20142;28.494;-16.312;2023-03-11T22:18:16;20.40;52.20
33841;DHT22;20142;28.494;-16.312;2023-03-11T22:23:18;20.30;51.50
33841;DHT22;20142;28.494;-16.312;2023-03-11T22:28:20;20.30;51.60
33841;DHT22;20142;28.494;-16.312;2023-03-11T22:33:21;20.30;51.80
33841;DHT22;20142;28.494;-16.312;2023-03-11T22:38:23;20.30;51.60
33841;DHT22;20142;28.494;-16.312;2023-03-11T22:43:26;20.30;51.60
33841;DHT22;20142;28.494;-16.312;2023-03-11T22:48:27;20.20;51.40
33841;DHT22;20142;28.494;-16.312;2023-03-11T22:53:29;20.00;51.70
33841;DHT22;20142;28.494;-16.312;2023-03-11T22:58:31;20.00;52.20
33841;DHT22;20142;28.494;-16.312;2023-03-11T23:03:34;19.90;52.10
33841;DHT22;20142;28.494;-16.312;2023-03-11T23:08:36;19.70;52.20
33841;DHT22;20142;28.494;-16.312;2023-03-11T23:13:39;19.70;52.40
33841;DHT22;20142;28.494;-16.312;2023-03-11T23:18:43;19.70;52.50
33841;DHT22;20142;28.494;-16.312;2023-03-11T23:23:46;19.50;52.30
33841;DHT22;20142;28.494;-16.312;2023-03-11T23:28:48;19.30;52.30
33841;DHT22;20142;28.494;-16.312;2023-03-11T23:33:53;19.30;52.90
33841;DHT22;20142;28.494;-16.312;2023-03-11T23:38:56;19.20;52.90
33841;DHT22;20142;28.494;-16.312;2023-03-11T23:43:58;19.20;53.00
33841;DHT22;20142;28.494;-16.312;2023-03-11T23:49:00;19.20;53.30
33841;DHT22;20142;28.494;-16.312;2023-03-11T23:54:04;19.20;53.30
33841;DHT22;20142;28.494;-16.312;2023-03-11T23:59:08;18.90;53.20
